createdAt,value
2022-11-10T00:01:30.810Z,55.2
2022-11-10T00:06:32.973Z,59.2
2022-11-10T00:11:35.959Z,58.5
2022-11-10T00:16:38.161Z,56.3
2022-11-10T00:21:40.109Z,52.5
2022-11-10T00:26:42.045Z,50.8
2022-11-10T00:31:44.232Z,51
2022-11-10T00:36:46.402Z,49
2022-11-10T00:41:48.326Z,48.1
2022-11-10T00:46:50.701Z,47.8
2022-11-10T00:51:53.011Z,44.7
2022-11-10T00:56:54.968Z,44.4
2022-11-10T01:01:56.931Z,43.6
2022-11-10T01:06:59.548Z,40.2
2022-11-10T01:12:01.705Z,42.3
2022-11-10T01:17:03.767Z,42.5
2022-11-10T01:22:05.980Z,40.9
2022-11-10T01:27:07.923Z,41.7
2022-11-10T01:32:10.030Z,38.8
2022-11-10T01:37:12.009Z,40.1
2022-11-10T01:42:13.950Z,38.7
2022-11-10T01:47:16.185Z,39.4
2022-11-10T01:52:18.448Z,39.3
2022-11-10T01:57:20.406Z,38.9
2022-11-10T02:02:22.506Z,38
2022-11-10T02:07:24.398Z,37.9
2022-11-10T02:12:26.424Z,38.5
2022-11-10T02:17:28.646Z,38.5
2022-11-10T02:22:30.835Z,39.1
2022-11-10T02:27:32.749Z,38.2
2022-11-10T02:32:34.736Z,40.8
2022-11-10T02:37:36.868Z,37.7
2022-11-10T02:42:39.571Z,42.9
2022-11-10T02:47:42.111Z,41.8
2022-11-10T02:52:44.510Z,41.2
2022-11-10T02:57:46.550Z,44.9
2022-11-10T03:02:48.760Z,42.7
2022-11-10T03:07:50.730Z,49.5
2022-11-10T03:12:52.671Z,47.9
2022-11-10T03:17:54.875Z,49.2
2022-11-10T03:22:56.915Z,43.4
2022-11-10T03:27:58.887Z,43.8
2022-11-10T03:33:00.899Z,49.6
2022-11-10T03:38:02.851Z,53.1
2022-11-10T03:43:04.813Z,56
2022-11-10T03:48:07.204Z,59.4
2022-11-10T03:53:09.521Z,58.2
2022-11-10T03:58:11.977Z,58.3
2022-11-10T04:03:14.564Z,55.1
2022-11-10T04:08:16.653Z,52.5
2022-11-10T04:13:19.006Z,47.2
2022-11-10T04:18:22.707Z,43.7
2022-11-10T04:23:25.195Z,40.6
2022-11-10T04:28:27.528Z,40.1
2022-11-10T04:33:29.730Z,37.8
2022-11-10T04:38:31.677Z,35.6
2022-11-10T04:43:33.661Z,35.8
2022-11-10T04:48:35.731Z,36.4
2022-11-10T04:53:38.530Z,44.3
2022-11-10T04:58:40.687Z,50.6
2022-11-10T05:03:42.800Z,51.3
2022-11-10T05:08:44.794Z,53.9
2022-11-10T05:13:46.765Z,63.2
2022-11-10T05:18:48.992Z,65.2
2022-11-10T05:23:51.148Z,67.6
2022-11-10T05:28:53.608Z,71.9
2022-11-10T05:33:56.064Z,74.7
2022-11-10T05:38:58.376Z,75.6
2022-11-10T05:44:00.347Z,72.8
2022-11-10T05:49:02.457Z,80.3
2022-11-10T05:54:04.675Z,79.5
2022-11-10T05:59:06.733Z,74.3
2022-11-10T06:04:08.865Z,78.8
2022-11-10T06:09:10.875Z,72.4
2022-11-10T06:14:12.775Z,70.2
2022-11-10T06:19:14.718Z,68.4
2022-11-10T06:24:16.703Z,72.9
2022-11-10T06:29:21.517Z,67.6
2022-11-10T06:34:28.445Z,70
2022-11-10T06:39:30.397Z,68.9
2022-11-10T06:44:32.438Z,67.3
2022-11-10T06:49:34.357Z,61.3
2022-11-10T06:54:36.542Z,62.7
2022-11-10T06:59:38.587Z,61.5
2022-11-10T07:04:40.626Z,62.2
2022-11-10T07:09:43.408Z,60
2022-11-10T07:14:45.447Z,56.4
2022-11-10T07:19:47.425Z,61.9
2022-11-10T07:24:50.210Z,50.5
2022-11-10T07:29:52.556Z,46.9
2022-11-10T07:34:55.269Z,47.8
2022-11-10T07:39:57.308Z,48.6
2022-11-10T07:44:59.327Z,74.3
2022-11-10T07:50:01.419Z,51.8
2022-11-10T07:55:03.632Z,50.2
2022-11-10T08:00:05.941Z,50.8
2022-11-10T08:05:08.346Z,50.8
2022-11-10T08:10:12.223Z,46.6
2022-11-10T08:15:14.454Z,66.7
2022-11-10T08:20:16.407Z,51.2
2022-11-10T08:25:18.397Z,41.6
2022-11-10T08:30:20.405Z,43.2
2022-11-10T08:35:22.399Z,38
2022-11-10T08:40:24.466Z,25.4
2022-11-10T08:45:26.765Z,18.7
2022-11-10T08:50:28.699Z,17.8
2022-11-10T08:55:30.913Z,18
2022-11-10T09:00:32.918Z,24.3
2022-11-10T09:05:35.034Z,20.7
2022-11-10T09:10:37.020Z,22.7
2022-11-10T09:15:39.129Z,24
2022-11-10T09:20:41.128Z,25.2
2022-11-10T09:25:43.138Z,27.2
2022-11-10T09:30:45.105Z,23.4
2022-11-10T09:35:47.053Z,21.1
2022-11-10T09:40:48.966Z,18
2022-11-10T09:45:50.931Z,20.3
2022-11-10T09:50:53.230Z,19.8
2022-11-10T09:55:55.364Z,18.1
2022-11-10T10:00:57.381Z,18
2022-11-10T10:05:59.607Z,17.9
2022-11-10T10:11:01.522Z,17.4
2022-11-10T10:16:03.469Z,17.7
2022-11-10T10:21:05.952Z,19.8
2022-11-10T10:26:06.812Z,20.7
2022-11-10T10:31:08.816Z,18.4
2022-11-10T10:36:12.573Z,18.2
2022-11-10T10:41:17.233Z,18.8
2022-11-10T10:46:15.521Z,20.6
2022-11-10T10:51:17.969Z,21
2022-11-10T10:56:21.431Z,20
2022-11-10T11:01:23.409Z,20.3
2022-11-10T11:06:25.617Z,19
2022-11-10T11:11:27.603Z,20.2
2022-11-10T11:16:30.047Z,21
2022-11-10T11:21:32.122Z,22.2
2022-11-10T11:26:34.060Z,21.7
2022-11-10T11:31:40.242Z,24
2022-11-10T11:36:45.444Z,25.9
2022-11-10T11:41:47.553Z,26.2
2022-11-10T11:46:49.661Z,24.3
2022-11-10T11:51:51.869Z,26.1
2022-11-10T11:56:54.509Z,27.1
2022-11-10T12:01:56.535Z,25.6
2022-11-10T12:06:58.630Z,26.8
2022-11-10T12:12:00.915Z,29.8
2022-11-10T12:17:02.935Z,30.2
2022-11-10T12:22:04.780Z,29.6
2022-11-10T12:27:07.460Z,28.9
2022-11-10T12:32:09.355Z,26.1
2022-11-10T12:37:11.322Z,25.1
2022-11-10T12:42:15.698Z,25.6
2022-11-10T12:52:24.120Z,25.3
2022-11-10T12:57:26.276Z,24
2022-11-10T13:02:28.213Z,24.1
2022-11-10T13:07:30.213Z,25.5
2022-11-10T13:12:32.324Z,28.1
2022-11-10T13:17:34.189Z,28.1
2022-11-10T13:22:36.306Z,31.6
2022-11-10T13:27:38.534Z,31.3
2022-11-10T13:32:40.457Z,30.9
2022-11-10T13:37:42.633Z,29.4
2022-11-10T13:42:47.129Z,30.4
2022-11-10T13:47:49.446Z,31.6
2022-11-10T13:52:51.811Z,31
2022-11-10T13:57:54.358Z,33.5
2022-11-10T14:02:56.372Z,30.9
2022-11-10T14:07:58.669Z,32.7
2022-11-10T14:13:00.600Z,32.3
2022-11-10T14:18:02.617Z,35.7
2022-11-10T14:23:04.573Z,37.1
2022-11-10T14:28:06.839Z,36.4
2022-11-10T14:33:08.825Z,34.9
2022-11-10T14:38:13.453Z,35.3
2022-11-10T14:43:13.314Z,36.1
2022-11-10T14:48:15.215Z,38.1
2022-11-10T14:53:17.353Z,35.2
2022-11-10T14:58:20.153Z,36.8
2022-11-10T15:03:23.982Z,34.1
2022-11-10T15:08:26.161Z,36.7
2022-11-10T15:13:28.406Z,41.3
2022-11-10T15:18:30.316Z,57.9
2022-11-10T15:23:33.729Z,39.9
2022-11-10T15:28:36.197Z,35.1
2022-11-10T15:33:38.209Z,35.4
2022-11-10T15:38:40.120Z,32.6
2022-11-10T15:43:42.219Z,32.1
2022-11-10T15:48:44.150Z,35.1
2022-11-10T15:53:46.006Z,34.7
2022-11-10T15:58:48.412Z,33.3
2022-11-10T16:03:50.280Z,36.4
2022-11-10T16:08:52.453Z,37.4
2022-11-10T16:13:54.440Z,37.1
2022-11-10T16:18:56.734Z,35.3
2022-11-10T16:23:58.687Z,35.6
2022-11-10T16:29:01.035Z,35.8
2022-11-10T16:34:03.129Z,36.1
2022-11-10T16:39:05.016Z,36.9
2022-11-10T16:44:07.025Z,36.5
2022-11-10T16:49:09.032Z,36.5
2022-11-10T16:54:11.319Z,37.6
2022-11-10T16:59:13.747Z,38.8
2022-11-10T17:04:15.696Z,38.2
2022-11-10T17:09:18.266Z,41.2
2022-11-10T17:14:20.244Z,39.5
2022-11-10T17:19:22.159Z,39.8
2022-11-10T17:24:24.350Z,41.6
2022-11-10T17:29:30.901Z,40.1
2022-11-10T17:34:33.147Z,42.3
2022-11-10T17:39:35.198Z,42.2
2022-11-10T17:44:37.238Z,41.7
2022-11-10T17:49:39.256Z,43.3
2022-11-10T17:54:41.417Z,41.9
2022-11-10T17:59:43.439Z,42.9
2022-11-10T18:04:45.402Z,44.5
2022-11-10T18:09:47.417Z,44.4
2022-11-10T18:14:49.396Z,44.2
2022-11-10T18:19:51.426Z,43.2
2022-11-10T18:24:53.372Z,45.1
2022-11-10T18:29:55.534Z,46.3
2022-11-10T18:34:57.508Z,44.2
2022-11-10T18:39:59.550Z,44.1
2022-11-10T18:45:01.468Z,43.9
2022-11-10T18:50:04.108Z,44.1
2022-11-10T18:55:09.422Z,41.3
2022-11-10T19:00:11.595Z,40.8
2022-11-10T19:05:13.589Z,43.1
2022-11-10T19:10:16.153Z,39.6
2022-11-10T19:15:18.148Z,45.4
2022-11-10T19:20:20.067Z,43
2022-11-10T19:25:22.258Z,42.5
2022-11-10T19:30:24.233Z,42.8
2022-11-10T19:35:26.276Z,45.1
2022-11-10T19:40:28.561Z,43.8
2022-11-10T19:45:30.750Z,43.8
2022-11-10T19:50:35.545Z,44.5
2022-11-10T19:55:37.842Z,44.4
2022-11-10T20:00:40.256Z,41.5
2022-11-10T20:05:42.237Z,45.1
2022-11-10T20:15:47.024Z,43.2
2022-11-10T20:20:49.484Z,43.6
2022-11-10T20:25:51.808Z,47.7
2022-11-10T20:30:53.925Z,48.8
2022-11-10T20:35:56.817Z,44.4
2022-11-10T20:40:59.265Z,47.1
2022-11-10T20:46:01.658Z,52.8
2022-11-10T20:51:04.007Z,48.7
2022-11-10T20:56:06.074Z,53.8
2022-11-10T21:01:08.166Z,51.7
2022-11-10T21:06:10.569Z,52.6
2022-11-10T21:11:12.703Z,49.2
2022-11-10T21:16:14.797Z,52.4
2022-11-10T21:21:16.838Z,54.1
2022-11-10T21:26:19.012Z,54.5
2022-11-10T21:31:21.144Z,56.2
2022-11-10T21:36:23.178Z,54.2
2022-11-10T21:41:25.219Z,54.8
2022-11-10T21:46:27.269Z,54.1
2022-11-10T21:51:29.395Z,55.5
2022-11-10T21:56:31.519Z,62.3
2022-11-10T22:01:33.770Z,54.8
2022-11-10T22:06:36.725Z,52.1
2022-11-10T22:11:39.327Z,103.4
2022-11-10T22:16:39.794Z,51.4
2022-11-10T22:21:41.807Z,47.6
2022-11-10T22:26:44.009Z,50.8
2022-11-10T22:31:46.229Z,46.6
2022-11-10T22:36:48.407Z,48.1
2022-11-10T22:41:50.868Z,48.3
2022-11-10T22:46:53.185Z,47.5
2022-11-10T22:51:55.495Z,44.5
2022-11-10T22:56:57.590Z,47
2022-11-10T23:02:00.404Z,44.4
2022-11-10T23:07:02.695Z,46.9
2022-11-10T23:12:04.889Z,45.6
2022-11-10T23:17:06.955Z,46.2
2022-11-10T23:22:09.009Z,71.2
2022-11-10T23:27:10.934Z,49.2
2022-11-10T23:32:13.038Z,45.2
2022-11-10T23:37:15.098Z,46
2022-11-10T23:42:17.706Z,44.5
2022-11-10T23:47:19.925Z,42.6
2022-11-10T23:52:22.042Z,45.6
2022-11-10T23:57:24.397Z,79.2
